Time;durP1;ratioP1;P1;durP2;ratioP2;P2;SDS_P1;SDS_P2;PMS_P1;PMS_P2;Temp;Humidity;BMP_temperature;BMP_pressure;BME280_temperature;BME280_humidity;BME280_pressure;Samples;Min_cycle;Max_cycle;Signal;HPM_P1;HPM_P2
2023/08/09 00:00:05;;;;;;;0.98;0.60;;;;;;;25.92;44.47;101148.09;4916140;28;96777;-79
2023/08/09 00:02:32;;;;;;;0.80;0.50;;;;;;;25.91;44.46;101147.25;4913086;28;96826;-78
2023/08/09 00:04:58;;;;;;;1.17;0.50;;;;;;;25.92;44.47;101170.13;4909274;28;96828;-78
2023/08/09 00:07:25;;;;;;;0.70;0.40;;;;;;;25.90;44.50;101166.72;4901544;28;97028;-78
2023/08/09 00:09:51;;;;;;;0.70;0.60;;;;;;;25.91;44.54;101162.91;4889830;28;99075;-78
2023/08/09 00:12:18;;;;;;;1.40;0.60;;;;;;;25.91;44.35;101154.66;4909964;28;97366;-78
2023/08/09 00:14:44;;;;;;;1.05;0.50;;;;;;;25.92;44.56;101167.38;4910825;28;96839;-79
2023/08/09 00:17:11;;;;;;;1.17;0.70;;;;;;;25.91;44.33;101165.66;4908632;28;96865;-78
2023/08/09 00:19:37;;;;;;;1.13;0.60;;;;;;;25.91;44.48;101160.16;4909499;28;100959;-78
2023/08/09 00:22:04;;;;;;;0.93;0.50;;;;;;;25.91;44.53;101161.00;4904236;28;96976;-78
2023/08/09 00:24:30;;;;;;;0.77;0.50;;;;;;;25.90;44.48;101158.47;4902894;28;98727;-79
2023/08/09 00:26:57;;;;;;;0.95;0.40;;;;;;;25.91;44.43;101173.94;4909313;28;96885;-78
2023/08/09 00:29:24;;;;;;;1.10;0.60;;;;;;;25.90;44.56;101170.31;4911989;28;97795;-78
2023/08/09 00:31:50;;;;;;;0.50;0.40;;;;;;;25.91;44.67;101155.50;4910892;28;99246;-78
2023/08/09 00:34:17;;;;;;;0.60;0.50;;;;;;;25.90;44.45;101156.56;4911778;28;96720;-78
2023/08/09 00:36:44;;;;;;;0.90;0.60;;;;;;;25.90;44.56;101155.72;4913645;28;97167;-78
2023/08/09 00:39:11;;;;;;;0.70;0.50;;;;;;;25.89;44.38;101154.88;4913227;28;96978;-78
2023/08/09 00:41:38;;;;;;;0.95;0.60;;;;;;;25.89;44.67;101163.13;4908776;28;100553;-78
2023/08/09 00:44:05;;;;;;;1.10;0.60;;;;;;;25.89;44.66;101165.88;4909478;28;96963;-78
2023/08/09 00:46:31;;;;;;;1.33;0.70;;;;;;;25.89;44.62;101165.88;4901791;28;99108;-78
2023/08/09 00:48:59;;;;;;;2.17;0.50;;;;;;;25.90;44.56;101169.47;4910967;28;98904;-78
2023/08/09 00:51:25;;;;;;;1.25;0.60;;;;;;;25.89;44.34;101168.63;4890119;28;100090;-79
2023/08/09 00:53:52;;;;;;;0.95;0.60;;;;;;;25.88;44.48;101169.69;4908183;28;97235;-78
2023/08/09 00:56:18;;;;;;;1.35;0.57;;;;;;;25.89;44.76;101168.63;4905384;28;96815;-78
2023/08/09 00:58:45;;;;;;;0.90;0.50;;;;;;;25.89;44.50;101165.03;4894147;28;100546;-79
2023/08/09 01:01:11;;;;;;;0.63;0.40;;;;;;;25.89;44.12;101178.78;4908519;28;97363;-78
2023/08/09 01:03:38;;;;;;;1.83;0.50;;;;;;;25.88;44.62;101180.69;4913197;28;96801;-78
2023/08/09 01:06:19;;;;;;;0.95;0.50;;;;;;;25.89;44.60;101187.88;4908421;28;96715;-78
2023/08/09 01:09:12;;;;;;;1.08;0.50;;;;;;;25.88;44.45;101180.69;4911192;28;96817;-78
2023/08/09 01:11:52;;;;;;;0.32;0.30;;;;;;;25.88;44.77;101171.56;4894359;28;98598;-78
2023/08/09 01:14:22;;;;;;;0.80;0.50;;;;;;;25.87;44.67;101176.22;4906842;28;97078;-78
2023/08/09 01:16:51;;;;;;;1.38;0.80;;;;;;;25.87;44.76;101173.47;4904962;28;96799;-78
2023/08/09 01:19:33;;;;;;;1.10;0.45;;;;;;;25.87;44.73;101176.22;4909633;28;99182;-78
2023/08/09 01:22:07;;;;;;;1.20;0.77;;;;;;;25.86;44.55;101174.53;4900268;28;96838;-78
2023/08/09 01:24:34;;;;;;;0.73;0.50;;;;;;;25.86;44.46;101176.44;4909262;28;98717;-78
2023/08/09 01:27:01;;;;;;;0.57;0.47;;;;;;;25.87;44.83;101181.72;4912587;28;96926;-78
2023/08/09 01:29:28;;;;;;;0.68;0.43;;;;;;;25.87;44.63;101183.63;4909335;28;100274;-78
2023/08/09 01:31:54;;;;;;;0.98;0.47;;;;;;;25.85;44.62;101178.34;4910177;28;97460;-78
2023/08/09 01:34:21;;;;;;;0.95;0.50;;;;;;;25.87;44.68;101183.63;4910846;28;96742;-78
2023/08/09 01:36:51;;;;;;;0.60;0.50;;;;;;;25.86;44.54;101184.69;4909948;28;96786;-78
2023/08/09 01:39:23;;;;;;;0.73;0.60;;;;;;;25.87;44.67;101191.88;4910456;28;98987;-77
2023/08/09 01:41:52;;;;;;;1.08;0.50;;;;;;;25.87;44.63;101201.00;4906528;28;98065;-78
2023/08/09 01:44:19;;;;;;;0.63;0.50;;;;;;;25.87;44.68;101197.41;4908402;28;96749;-78
2023/08/09 01:46:46;;;;;;;0.70;0.50;;;;;;;25.87;45.13;101197.41;4911719;28;97053;-78
2023/08/09 01:49:15;;;;;;;0.88;0.40;;;;;;;25.86;44.76;101191.03;4910889;28;99704;-78
2023/08/09 01:51:42;;;;;;;0.40;0.40;;;;;;;25.87;44.69;101197.41;4910163;28;98267;-79
2023/08/09 01:54:08;;;;;;;0.80;0.50;;;;;;;25.85;44.76;101197.59;4909909;28;96748;-78
2023/08/09 01:56:35;;;;;;;1.10;0.50;;;;;;;25.85;44.94;101194.84;4908732;28;96743;-78
2023/08/09 01:59:05;;;;;;;1.23;0.50;;;;;;;25.86;44.62;101201.19;4910892;28;98784;-78
2023/08/09 02:01:32;;;;;;;0.50;0.30;;;;;;;25.86;44.60;101203.94;4909379;28;100700;-78
2023/08/09 02:03:58;;;;;;;1.23;0.60;;;;;;;25.86;44.50;101212.19;4909896;28;96860;-78
2023/08/09 02:06:25;;;;;;;0.80;0.50;;;;;;;25.85;44.80;101205.84;4910187;28;97089;-78
2023/08/09 02:08:52;;;;;;;0.70;0.40;;;;;;;25.85;44.78;101208.59;4909937;28;97823;-78
2023/08/09 02:11:18;;;;;;;1.10;0.60;;;;;;;25.85;44.86;101211.34;4910045;28;98938;-78
2023/08/09 02:13:45;;;;;;;0.52;0.43;;;;;;;25.85;44.32;101203.09;4911779;28;96837;-78
2023/08/09 02:16:12;;;;;;;0.60;0.50;;;;;;;25.85;44.92;101207.75;4906002;28;96721;-78
2023/08/09 02:18:39;;;;;;;0.80;0.40;;;;;;;25.86;44.79;101212.19;4910298;28;96674;-78
2023/08/09 02:21:05;;;;;;;0.65;0.43;;;;;;;25.84;44.53;101211.56;4907017;28;97115;-78
2023/08/09 02:23:32;;;;;;;0.50;0.38;;;;;;;25.84;44.62;101212.41;4902795;28;96919;-78
2023/08/09 02:25:58;;;;;;;0.82;0.50;;;;;;;25.85;44.69;101214.09;4898192;28;98400;-78
2023/08/09 02:28:25;;;;;;;0.50;0.40;;;;;;;25.84;44.65;101220.66;4910410;28;96814;-78
2023/08/09 02:30:53;;;;;;;0.60;0.50;;;;;;;25.84;44.67;101215.16;4905335;28;99632;-78
2023/08/09 02:33:20;;;;;;;0.47;0.43;;;;;;;25.84;44.65;101217.91;4908594;28;96974;-78
2023/08/09 02:35:56;;;;;;;0.38;0.28;;;;;;;25.84;44.58;101220.66;4908703;28;97637;-79
2023/08/09 02:38:24;;;;;;;0.50;0.40;;;;;;;25.83;44.64;101221.72;4904735;28;100889;-79
2023/08/09 02:40:51;;;;;;;0.73;0.40;;;;;;;25.84;44.69;101222.56;4907371;28;97110;-78
2023/08/09 02:43:19;;;;;;;1.05;0.57;;;;;;;25.84;44.88;101233.56;4889796;28;96809;-78
2023/08/09 02:45:46;;;;;;;0.80;0.50;;;;;;;25.84;44.82;101236.31;4909972;28;96782;-78
2023/08/09 02:48:13;;;;;;;0.50;0.40;;;;;;;25.84;44.79;101230.81;4911225;28;97715;-78
2023/08/09 02:50:40;;;;;;;0.47;0.35;;;;;;;25.83;44.71;101240.97;4911657;28;98226;-78
2023/08/09 02:53:08;;;;;;;0.52;0.40;;;;;;;25.84;44.54;101241.81;4909113;28;96910;-78
2023/08/09 02:55:35;;;;;;;0.68;0.50;;;;;;;25.83;44.61;101242.88;4906845;28;97116;-78
2023/08/09 02:58:04;;;;;;;0.68;0.30;;;;;;;25.83;44.77;101240.97;4909624;28;99049;-78
2023/08/09 03:00:32;;;;;;;0.65;0.43;;;;;;;25.83;44.61;101251.97;4905845;28;99155;-78
2023/08/09 03:02:59;;;;;;;0.95;0.50;;;;;;;25.83;44.69;101245.63;4908439;28;96679;-78
2023/08/09 03:05:27;;;;;;;0.85;0.50;;;;;;;25.83;45.03;101251.13;4908888;28;96945;-78
2023/08/09 03:07:54;;;;;;;0.95;0.35;;;;;;;25.83;44.49;101253.88;4907269;28;99761;-78
2023/08/09 03:10:22;;;;;;;0.60;0.40;;;;;;;25.83;44.57;101253.88;4902332;28;98010;-78
2023/08/09 03:12:49;;;;;;;0.38;0.30;;;;;;;25.81;44.67;101259.56;4888995;28;96809;-78
2023/08/09 03:15:15;;;;;;;0.63;0.40;;;;;;;25.81;44.76;101265.09;4904731;28;96826;-79
2023/08/09 03:17:42;;;;;;;0.38;0.30;;;;;;;25.82;44.79;101268.69;4906964;28;99022;-78
2023/08/09 03:20:13;;;;;;;0.75;0.50;;;;;;;25.82;44.85;101265.94;4908410;28;100038;-78
2023/08/09 03:22:41;;;;;;;0.70;0.40;;;;;;;25.81;44.68;101262.34;4905787;28;96763;-78
2023/08/09 03:25:09;;;;;;;0.57;0.35;;;;;;;25.80;44.50;101246.88;4898150;28;96965;-78
2023/08/09 03:27:37;;;;;;;0.40;0.40;;;;;;;25.81;44.67;101244.97;4902007;28;98077;-78
2023/08/09 03:30:06;;;;;;;0.80;0.40;;;;;;;25.81;44.64;101250.47;4909022;28;97346;-78
2023/08/09 03:32:32;;;;;;;0.38;0.20;;;;;;;25.81;44.76;101255.97;4891451;28;96974;-78
2023/08/09 03:34:59;;;;;;;0.57;0.40;;;;;;;25.80;44.70;101257.88;4900419;28;97891;-78
2023/08/09 03:37:26;;;;;;;0.80;0.30;;;;;;;25.80;44.79;101274.38;4890069;28;98059;-78
2023/08/09 03:39:52;;;;;;;0.50;0.43;;;;;;;25.80;44.63;101279.03;4898618;28;96747;-78
2023/08/09 03:42:19;;;;;;;1.48;0.40;;;;;;;25.80;44.66;101274.38;4907627;28;96709;-78
2023/08/09 03:44:45;;;;;;;0.70;0.30;;;;;;;25.80;44.75;101287.28;4891291;28;98507;-78
2023/08/09 03:47:12;;;;;;;0.50;0.40;;;;;;;25.79;44.86;101289.19;4909524;28;96954;-78
2023/08/09 03:49:39;;;;;;;0.40;0.40;;;;;;;25.79;44.85;101289.19;4906216;28;97271;-78
2023/08/09 03:52:06;;;;;;;0.80;0.50;;;;;;;25.80;44.88;101295.53;4909951;28;97115;-78
2023/08/09 03:54:34;;;;;;;0.70;0.40;;;;;;;25.79;44.69;101302.94;4907508;28;97194;-78
2023/08/09 03:57:01;;;;;;;0.70;0.50;;;;;;;25.78;44.50;101301.25;4911598;28;97847;-78
2023/08/09 03:59:28;;;;;;;0.40;0.38;;;;;;;25.79;44.81;101296.59;4912186;28;99434;-78
2023/08/09 04:01:55;;;;;;;0.47;0.47;;;;;;;25.79;44.73;101304.84;4910959;28;97342;-77
2023/08/09 04:04:22;;;;;;;0.60;0.40;;;;;;;25.78;44.57;101304.00;4911202;28;97078;-78
2023/08/09 04:06:49;;;;;;;0.45;0.40;;;;;;;25.78;44.72;101303.16;4891558;28;99310;-78
2023/08/09 04:09:16;;;;;;;0.70;0.40;;;;;;;25.80;44.91;101309.31;4909163;28;100305;-78
2023/08/09 04:11:42;;;;;;;0.40;0.40;;;;;;;25.78;45.10;101315.00;4911734;28;96824;-78
2023/08/09 04:14:08;;;;;;;0.40;0.30;;;;;;;25.78;44.60;101311.41;4913663;28;96934;-78
2023/08/09 04:16:35;;;;;;;0.40;0.40;;;;;;;25.78;44.86;101308.66;4905704;28;96938;-78
2023/08/09 04:19:02;;;;;;;0.50;0.38;;;;;;;25.77;44.43;101302.28;4912553;28;97166;-78
2023/08/09 04:21:28;;;;;;;0.43;0.40;;;;;;;25.77;44.74;101313.31;4911910;28;96817;-79
2023/08/09 04:23:55;;;;;;;0.60;0.40;;;;;;;25.78;44.66;101316.91;4910911;28;97139;-78
2023/08/09 04:26:21;;;;;;;0.50;0.50;;;;;;;25.77;44.74;101320.72;4908140;28;97236;-78
2023/08/09 04:28:48;;;;;;;0.75;0.50;;;;;;;25.77;44.57;101324.31;4912081;28;96794;-78
2023/08/09 04:31:14;;;;;;;0.30;0.28;;;;;;;25.77;44.49;101317.97;4911185;28;96829;-78
2023/08/09 04:33:47;;;;;;;0.32;0.30;;;;;;;25.76;44.81;101317.09;4912141;28;96601;-78
2023/08/09 04:36:14;;;;;;;0.40;0.30;;;;;;;25.77;44.58;101323.47;4895249;28;99705;-78
2023/08/09 04:38:40;;;;;;;0.50;0.40;;;;;;;25.76;44.54;101319.84;4911917;28;97315;-78
2023/08/09 04:41:07;;;;;;;0.90;0.32;;;;;;;25.76;44.80;101333.59;4904265;28;98030;-78
2023/08/09 04:43:33;;;;;;;0.40;0.30;;;;;;;25.76;44.45;101333.59;4910176;28;96869;-78
2023/08/09 04:46:00;;;;;;;0.40;0.38;;;;;;;25.76;45.09;101333.59;4905895;28;96944;-78
2023/08/09 04:48:26;;;;;;;0.75;0.40;;;;;;;25.76;45.09;101328.09;4909354;28;98198;-78
2023/08/09 04:50:53;;;;;;;1.10;0.30;;;;;;;25.77;44.68;101339.97;4908015;28;96913;-78
2023/08/09 04:53:20;;;;;;;0.50;0.40;;;;;;;25.77;44.64;101335.31;4911755;28;96846;-78
2023/08/09 04:55:47;;;;;;;0.40;0.30;;;;;;;25.76;44.67;101339.13;4908127;28;98042;-78
2023/08/09 04:58:14;;;;;;;0.50;0.40;;;;;;;25.76;44.69;101339.13;4894135;28;100286;-78
2023/08/09 05:00:40;;;;;;;0.40;0.30;;;;;;;25.75;44.53;101337.41;4912175;28;96693;-78
2023/08/09 05:03:07;;;;;;;0.57;0.30;;;;;;;25.76;44.82;101344.63;4911255;28;96782;-79
2023/08/09 05:05:33;;;;;;;0.30;0.22;;;;;;;25.75;44.94;101345.66;4906345;28;96968;-78
2023/08/09 05:08:00;;;;;;;0.35;0.30;;;;;;;25.76;44.76;101344.63;4911744;28;96939;-78
2023/08/09 05:10:26;;;;;;;0.50;0.45;;;;;;;25.76;44.79;101355.63;4914934;28;96896;-78
2023/08/09 05:12:53;;;;;;;0.40;0.30;;;;;;;25.77;44.76;101350.97;4913850;28;97223;-78
2023/08/09 05:15:19;;;;;;;0.50;0.30;;;;;;;25.76;44.87;101355.63;4907906;28;96877;-78
2023/08/09 05:17:46;;;;;;;0.57;0.40;;;;;;;25.77;44.74;101362.81;4907052;28;98169;-78
2023/08/09 05:20:13;;;;;;;0.43;0.25;;;;;;;25.76;44.73;101361.13;4911745;28;96654;-78
2023/08/09 05:22:39;;;;;;;0.60;0.35;;;;;;;25.76;44.62;101374.88;4908009;28;96772;-78
2023/08/09 05:25:06;;;;;;;0.80;0.60;;;;;;;25.75;44.75;101359.41;4898434;28;96949;-78
2023/08/09 05:27:33;;;;;;;0.63;0.40;;;;;;;25.76;44.78;101363.88;4909729;28;97827;-78
2023/08/09 05:29:59;;;;;;;0.45;0.40;;;;;;;25.77;44.34;101361.97;4905618;28;97036;-79
2023/08/09 05:32:26;;;;;;;0.43;0.30;;;;;;;25.76;44.74;101365.78;4906870;28;97063;-78
2023/08/09 05:34:53;;;;;;;0.60;0.30;;;;;;;25.77;44.70;101373.84;4909395;28;96987;-78
2023/08/09 05:37:19;;;;;;;0.30;0.30;;;;;;;25.76;44.76;101374.03;4906003;28;96870;-78
2023/08/09 05:39:45;;;;;;;0.50;0.30;;;;;;;25.77;44.84;101382.09;4900575;28;96828;-79
2023/08/09 05:42:13;;;;;;;0.50;0.40;;;;;;;25.78;44.62;101385.69;4903790;28;96975;-78
2023/08/09 05:44:40;;;;;;;0.32;0.20;;;;;;;25.77;44.82;101378.47;4899009;28;98157;-79
2023/08/09 05:47:06;;;;;;;0.43;0.40;;;;;;;25.78;44.72;101386.53;4900714;28;97782;-78
2023/08/09 05:49:35;;;;;;;0.75;0.40;;;;;;;25.78;44.61;101380.19;4903804;28;96897;-78
2023/08/09 05:52:03;;;;;;;0.70;0.35;;;;;;;25.77;44.99;101381.22;4904220;28;97092;-78
2023/08/09 05:54:30;;;;;;;0.50;0.32;;;;;;;25.78;44.22;101385.69;4906010;28;98153;-78
2023/08/09 05:56:56;;;;;;;0.50;0.35;;;;;;;25.77;44.55;101389.50;4902542;28;99436;-78
2023/08/09 05:59:23;;;;;;;0.30;0.30;;;;;;;25.79;44.65;101392.91;4911428;28;96659;-78
2023/08/09 06:01:49;;;;;;;0.60;0.30;;;;;;;25.78;44.72;101389.28;4906630;28;96926;-78
2023/08/09 06:04:16;;;;;;;0.47;0.30;;;;;;;25.78;44.42;101393.94;4901703;28;97454;-78
2023/08/09 06:06:43;;;;;;;0.60;0.30;;;;;;;25.78;44.68;101392.03;4905435;28;97583;-78
2023/08/09 06:09:09;;;;;;;1.52;0.30;;;;;;;25.78;44.65;101394.78;4903752;28;96751;-78
2023/08/09 06:11:54;;;;;;;0.37;0.27;;;;;;;25.77;44.58;101398.59;4911791;28;96935;-78
2023/08/09 06:14:20;;;;;;;0.45;0.30;;;;;;;25.78;44.75;101403.06;4900847;28;97380;-79
2023/08/09 06:16:48;;;;;;;1.05;0.30;;;;;;;25.79;44.68;101403.91;4900798;28;99038;-78
2023/08/09 06:19:14;;;;;;;0.70;0.30;;;;;;;25.78;44.59;101405.81;4905757;28;96629;-78
2023/08/09 06:21:41;;;;;;;0.30;0.30;;;;;;;25.78;44.56;101411.31;4901948;28;98608;-78
2023/08/09 06:24:09;;;;;;;0.38;0.30;;;;;;;25.78;44.81;101408.56;4890801;28;97727;-78
2023/08/09 06:26:35;;;;;;;0.50;0.20;;;;;;;25.79;44.75;101420.41;4892349;28;97589;-80
2023/08/09 06:29:03;;;;;;;0.82;0.40;;;;;;;25.79;44.81;101418.50;4905612;28;97137;-78
2023/08/09 06:31:29;;;;;;;0.30;0.30;;;;;;;25.79;44.62;101413.00;4909578;28;97508;-78
2023/08/09 06:33:56;;;;;;;2.20;0.55;;;;;;;25.80;44.73;101416.63;4910562;28;96953;-78
2023/08/09 06:36:22;;;;;;;0.50;0.40;;;;;;;25.80;44.72;101424.88;4910134;28;96845;-78
2023/08/09 06:38:49;;;;;;;0.55;0.45;;;;;;;25.79;44.99;101424.00;4878996;28;96750;-78
2023/08/09 06:41:15;;;;;;;0.98;0.40;;;;;;;25.80;44.66;101427.63;4905713;28;96795;-78
2023/08/09 06:43:42;;;;;;;0.40;0.30;;;;;;;25.80;44.60;101433.13;4911541;28;97715;-78
2023/08/09 06:46:08;;;;;;;0.30;0.28;;;;;;;25.80;44.65;101433.13;4905553;28;96876;-78
2023/08/09 06:48:35;;;;;;;0.52;0.30;;;;;;;25.80;44.96;101444.13;4909469;28;96907;-78
2023/08/09 06:51:02;;;;;;;0.93;0.50;;;;;;;25.80;44.66;101441.38;4910803;28;97329;-78
2023/08/09 06:53:28;;;;;;;0.98;0.52;;;;;;;25.81;44.79;101448.59;4898729;28;99694;-78
2023/08/09 06:55:55;;;;;;;0.50;0.30;;;;;;;25.81;44.67;101456.84;4896959;28;96759;-78
2023/08/09 06:58:21;;;;;;;0.77;0.50;;;;;;;25.80;44.79;101453.25;4919338;28;97034;-78
2023/08/09 07:00:48;;;;;;;1.05;0.40;;;;;;;25.81;44.72;101452.19;4906076;28;97920;-78
2023/08/09 07:03:15;;;;;;;1.08;0.40;;;;;;;25.81;44.66;101462.34;4906097;28;96842;-78
2023/08/09 07:05:43;;;;;;;0.60;0.40;;;;;;;25.81;44.83;101460.44;4910485;28;96828;-78
2023/08/09 07:08:10;;;;;;;1.65;0.55;;;;;;;25.81;44.64;101452.19;4894233;28;97199;-78
2023/08/09 07:10:37;;;;;;;2.10;0.55;;;;;;;25.82;44.65;101448.38;4911252;28;96856;-78
2023/08/09 07:13:04;;;;;;;0.80;0.50;;;;;;;25.82;44.69;101456.66;4911665;28;96694;-78
2023/08/09 07:15:30;;;;;;;2.28;0.50;;;;;;;25.82;44.91;101467.66;4904189;28;97043;-79
2023/08/09 07:17:57;;;;;;;0.88;0.55;;;;;;;25.83;44.81;101471.25;4908956;28;97202;-78
2023/08/09 07:20:23;;;;;;;0.55;0.40;;;;;;;25.83;44.87;101469.34;4910408;28;96999;-79
2023/08/09 07:22:52;;;;;;;1.02;0.57;;;;;;;25.83;44.75;101469.34;4906353;28;97866;-78
2023/08/09 07:25:19;;;;;;;0.95;0.63;;;;;;;25.82;44.88;101464.91;4908364;28;96737;-78
2023/08/09 07:27:49;;;;;;;0.40;0.30;;;;;;;25.83;45.08;101472.09;4903203;28;98496;-77
2023/08/09 07:30:16;;;;;;;0.75;0.40;;;;;;;25.84;44.79;101468.31;4906225;28;96818;-78
2023/08/09 07:32:44;;;;;;;0.82;0.40;;;;;;;25.84;44.88;101473.81;4907811;28;96834;-78
2023/08/09 07:35:12;;;;;;;0.65;0.40;;;;;;;25.85;44.80;101474.66;4908865;28;96910;-78
2023/08/09 07:37:41;;;;;;;1.05;0.50;;;;;;;25.85;44.77;101481.03;4911486;28;96858;-78
2023/08/09 07:40:09;;;;;;;0.73;0.43;;;;;;;25.86;44.65;101479.13;4913673;28;96941;-78
2023/08/09 07:42:35;;;;;;;0.90;0.45;;;;;;;25.85;44.74;101477.41;4909120;28;96844;-78
2023/08/09 07:45:03;;;;;;;1.13;0.63;;;;;;;25.85;44.86;101475.53;4905965;28;97488;-78
2023/08/09 07:47:30;;;;;;;0.50;0.40;;;;;;;25.86;44.80;101484.63;4904628;28;96952;-77
2023/08/09 07:49:57;;;;;;;1.17;0.50;;;;;;;25.86;44.94;101484.63;4908753;28;97905;-78
2023/08/09 07:52:23;;;;;;;1.15;0.50;;;;;;;25.85;44.77;101486.53;4905107;28;97018;-78
2023/08/09 07:54:50;;;;;;;1.88;0.50;;;;;;;25.86;45.07;101492.88;4902890;28;97362;-79
2023/08/09 07:57:16;;;;;;;0.57;0.40;;;;;;;25.87;44.97;101489.94;4908838;28;97242;-78
2023/08/09 07:59:43;;;;;;;0.80;0.40;;;;;;;25.87;44.79;101500.09;4909523;28;96999;-78
2023/08/09 08:02:09;;;;;;;0.68;0.40;;;;;;;25.87;44.80;101503.69;4907270;28;96876;-78
2023/08/09 08:04:36;;;;;;;0.65;0.55;;;;;;;25.87;44.91;101508.34;4911605;28;97552;-78
2023/08/09 08:07:03;;;;;;;0.73;0.50;;;;;;;25.87;44.94;101500.94;4913908;28;97036;-78
2023/08/09 08:09:32;;;;;;;1.00;0.68;;;;;;;25.88;44.92;101505.41;4914263;28;96621;-77
2023/08/09 08:11:59;;;;;;;1.48;0.40;;;;;;;25.88;45.09;101510.91;4909401;28;97303;-78
2023/08/09 08:14:39;;;;;;;0.60;0.40;;;;;;;25.88;44.75;101504.56;4905377;28;97266;-78
2023/08/09 08:17:06;;;;;;;0.55;0.40;;;;;;;25.88;44.85;101508.16;4908031;28;96990;-78
2023/08/09 08:19:32;;;;;;;0.60;0.40;;;;;;;25.89;44.98;101509.00;4908432;28;98745;-78
2023/08/09 08:21:59;;;;;;;0.52;0.32;;;;;;;25.88;44.92;101508.16;4906483;28;97822;-78
2023/08/09 08:24:26;;;;;;;0.40;0.30;;;;;;;25.88;44.90;101505.41;4907065;28;97418;-78
2023/08/09 08:26:54;;;;;;;0.70;0.35;;;;;;;25.90;44.90;101511.56;4910628;28;96920;-78
2023/08/09 08:29:22;;;;;;;0.50;0.40;;;;;;;25.90;44.89;101508.81;4907826;28;97017;-77
2023/08/09 08:31:51;;;;;;;0.88;0.50;;;;;;;25.90;44.87;101517.06;4905166;28;97906;-78
2023/08/09 08:34:21;;;;;;;0.70;0.40;;;;;;;25.90;44.81;101513.47;4907786;28;97891;-78
2023/08/09 08:36:48;;;;;;;1.25;0.50;;;;;;;25.91;44.97;101516.03;4910332;28;97435;-78
2023/08/09 08:39:15;;;;;;;0.75;0.40;;;;;;;25.90;44.85;101519.81;4911994;28;96885;-78
2023/08/09 08:41:42;;;;;;;0.43;0.30;;;;;;;25.91;44.89;101518.78;4907691;28;98193;-78
2023/08/09 08:44:11;;;;;;;0.70;0.40;;;;;;;25.90;44.89;101522.56;4906723;28;96740;-78
2023/08/09 08:46:38;;;;;;;1.13;0.57;;;;;;;25.91;44.92;101528.94;4906618;28;96757;-77
2023/08/09 08:49:12;;;;;;;1.35;0.65;;;;;;;25.92;44.92;101527.88;4911199;28;97098;-78
2023/08/09 08:51:42;;;;;;;0.60;0.38;;;;;;;25.91;44.88;101527.03;4907139;28;97049;-78
2023/08/09 08:54:10;;;;;;;1.13;0.40;;;;;;;25.91;44.97;101528.94;4913110;28;97741;-78
2023/08/09 08:56:36;;;;;;;0.50;0.30;;;;;;;25.92;44.89;101539.75;4923971;28;96559;-78
2023/08/09 08:59:03;;;;;;;0.55;0.30;;;;;;;25.92;44.96;101541.66;4909245;28;96934;-78
2023/08/09 09:01:32;;;;;;;0.73;0.52;;;;;;;25.93;44.96;101538.69;4902220;28;98636;-78
2023/08/09 09:03:59;;;;;;;1.40;0.50;;;;;;;25.95;44.57;101544.00;4906040;28;96743;-78
2023/08/09 09:06:25;;;;;;;0.80;0.60;;;;;;;25.94;44.80;101550.56;4910063;28;96804;-77
2023/08/09 09:08:56;;;;;;;1.02;0.40;;;;;;;25.94;44.95;101536.81;4908149;28;97051;-78
2023/08/09 09:11:23;;;;;;;0.60;0.40;;;;;;;25.94;44.96;101543.16;4906526;28;98161;-77
2023/08/09 09:13:51;;;;;;;1.05;0.50;;;;;;;25.95;45.20;101550.38;4904576;28;97169;-78
2023/08/09 09:16:19;;;;;;;0.65;0.45;;;;;;;25.95;44.93;101550.38;4904501;28;96899;-77
2023/08/09 09:18:48;;;;;;;0.77;0.50;;;;;;;25.95;45.02;101550.38;4905230;28;98107;-78
2023/08/09 09:21:16;;;;;;;0.80;0.60;;;;;;;25.96;45.07;101549.31;4908516;28;96804;-77
2023/08/09 09:23:43;;;;;;;0.60;0.50;;;;;;;25.96;45.01;101554.84;4903694;28;97597;-77
2023/08/09 09:26:11;;;;;;;2.05;0.50;;;;;;;25.97;44.87;101547.44;4910853;28;96838;-77
2023/08/09 09:28:42;;;;;;;1.23;0.50;;;;;;;25.99;45.05;101556.34;4906356;28;96695;-77
2023/08/09 09:31:10;;;;;;;0.45;0.40;;;;;;;25.98;44.96;101557.38;4905836;28;97540;-78
2023/08/09 09:33:39;;;;;;;1.02;0.50;;;;;;;25.98;44.93;101569.25;4910016;28;97250;-77
2023/08/09 09:36:10;;;;;;;0.63;0.38;;;;;;;26.00;44.79;101557.19;4894273;28;96825;-78
2023/08/09 09:38:38;;;;;;;1.10;0.40;;;;;;;25.98;44.89;101569.25;4905400;28;96818;-78
2023/08/09 09:41:08;;;;;;;1.35;0.70;;;;;;;26.00;44.81;101565.44;4909762;28;96893;-77
2023/08/09 09:43:41;;;;;;;0.55;0.45;;;;;;;26.02;45.05;101566.16;4900568;28;96832;-77
2023/08/09 09:46:22;;;;;;;1.20;0.65;;;;;;;26.00;44.99;101558.06;4906516;28;97676;-77
2023/08/09 09:49:00;;;;;;;1.15;0.50;;;;;;;26.01;44.92;101565.28;4910834;28;96838;-77
2023/08/09 09:51:28;;;;;;;0.60;0.50;;;;;;;25.99;44.88;101561.84;4901852;28;97205;-77
2023/08/09 09:53:58;;;;;;;0.73;0.55;;;;;;;26.00;44.87;101560.81;4891869;28;98279;-77
2023/08/09 09:56:25;;;;;;;0.73;0.50;;;;;;;26.02;45.04;101561.50;4895009;28;98982;-77
2023/08/09 09:58:52;;;;;;;0.45;0.35;;;;;;;26.02;45.04;101563.41;4881010;28;99132;-77
2023/08/09 10:01:22;;;;;;;1.00;0.60;;;;;;;26.04;45.04;101566.81;4901851;28;96815;-77
2023/08/09 10:03:53;;;;;;;0.40;0.40;;;;;;;26.03;44.83;101554.94;4909001;28;97949;-77
2023/08/09 10:06:29;;;;;;;0.47;0.35;;;;;;;26.04;44.91;101558.56;4909860;28;96902;-77
2023/08/09 10:08:59;;;;;;;0.80;0.45;;;;;;;26.03;44.96;101554.94;4907900;28;97581;-77
2023/08/09 10:11:28;;;;;;;0.55;0.40;;;;;;;26.04;44.83;101556.66;4910788;28;98597;-77
2023/08/09 10:14:00;;;;;;;0.70;0.40;;;;;;;26.05;45.00;101563.00;4908105;28;96676;-77
2023/08/09 10:16:29;;;;;;;0.60;0.43;;;;;;;26.05;44.72;101557.50;4909820;28;97378;-77
2023/08/09 10:19:20;;;;;;;0.60;0.30;;;;;;;26.06;44.91;101559.22;4902908;28;96855;-77
2023/08/09 10:21:48;;;;;;;1.27;0.50;;;;;;;26.05;44.97;101561.09;4900361;28;101100;-77
2023/08/09 10:24:18;;;;;;;0.88;0.50;;;;;;;26.06;44.99;101561.97;4904564;28;96725;-77
2023/08/09 10:26:49;;;;;;;0.73;0.40;;;;;;;26.06;44.95;101554.56;4903901;28;97110;-77
2023/08/09 10:29:23;;;;;;;0.82;0.60;;;;;;;26.07;44.95;101556.25;4902119;28;96973;-78
2023/08/09 10:31:59;;;;;;;0.73;0.50;;;;;;;26.09;45.04;101564.31;4902496;28;97895;-78
2023/08/09 10:34:37;;;;;;;0.85;0.50;;;;;;;26.07;44.88;101571.94;4904344;28;96866;-78
2023/08/09 10:37:09;;;;;;;0.70;0.47;;;;;;;26.07;45.07;101571.94;4901947;28;99133;-78
2023/08/09 10:39:36;;;;;;;0.90;0.60;;;;;;;26.07;44.71;101585.69;4902298;28;96723;-78
2023/08/09 10:42:05;;;;;;;0.75;0.57;;;;;;;26.08;45.00;101576.38;4905776;28;100500;-78
2023/08/09 10:44:40;;;;;;;0.82;0.50;;;;;;;26.07;44.95;101582.94;4903052;28;97415;-78
2023/08/09 10:47:22;;;;;;;0.60;0.47;;;;;;;26.09;44.80;101578.09;4898129;28;96768;-78
2023/08/09 10:49:48;;;;;;;1.65;0.40;;;;;;;26.09;44.86;101578.09;4901696;28;96721;-78
2023/08/09 10:52:17;;;;;;;0.70;0.50;;;;;;;26.08;44.87;101574.50;4900251;28;96991;-78
2023/08/09 10:54:49;;;;;;;1.52;0.50;;;;;;;26.08;44.94;101562.63;4901563;28;97740;-78
2023/08/09 10:57:16;;;;;;;0.75;0.50;;;;;;;26.09;45.11;101572.59;4902176;28;97076;-78
2023/08/09 10:59:43;;;;;;;0.57;0.50;;;;;;;26.08;44.95;101568.13;4906439;28;98661;-78
2023/08/09 11:02:10;;;;;;;0.70;0.40;;;;;;;26.09;44.82;101578.09;4906789;28;97158;-78
2023/08/09 11:04:37;;;;;;;0.95;0.50;;;;;;;26.09;44.72;101578.94;4898441;28;96746;-78
2023/08/09 11:07:06;;;;;;;0.68;0.60;;;;;;;26.10;44.94;101574.28;4909565;28;96717;-78
2023/08/09 11:09:33;;;;;;;0.90;0.60;;;;;;;26.10;44.46;101572.41;4900283;28;97469;-78
2023/08/09 11:12:00;;;;;;;0.60;0.50;;;;;;;26.11;44.82;101579.59;4910680;28;99185;-78
2023/08/09 11:14:29;;;;;;;1.17;0.60;;;;;;;26.12;44.80;101585.97;4910248;28;96706;-80
2023/08/09 11:16:56;;;;;;;0.77;0.68;;;;;;;26.12;44.63;101583.22;4920925;28;96982;-78
2023/08/09 11:19:28;;;;;;;0.70;0.50;;;;;;;26.12;44.74;101580.47;4910652;28;96683;-78
2023/08/09 11:22:02;;;;;;;0.55;0.43;;;;;;;26.13;44.72;101582.16;4903857;28;98362;-78
2023/08/09 11:24:29;;;;;;;1.08;0.68;;;;;;;26.13;44.78;101582.16;4908244;28;98638;-78
2023/08/09 11:26:58;;;;;;;0.93;0.70;;;;;;;26.12;44.73;101581.31;4909778;28;96919;-78